Enduring Freedom — WDA8351 — position and weather

sailwx.info

Track history (hours):
 
Tides and Currents Weather Stations Pressure Air Temp Water Temp Dewpoint Dewpoint Depression Visibility Wind Speed Wind Dir Waves Ship Positions

Enduring Freedom

Owner: PORT IMPERIAL FERRY CORP, WEEHAWKEN, NJ. More information available from US FCC via Universal Licensing System and Coast Guard Vessel Documentation Center.

Last reported at 2017-Nov-18 01:27 UTC. Time now 2017-Nov-18 10:25 UTC.
Position N 40°46' W 074°01'.

Length 22 m.

Type: Passenger vessel. MMSI: 366853420.

Date/timePositionNaut miles runAvg speedWind from/ knotsBaromVisibWave heightAir tempDewpointWater temp
2017-Nov-18 01:27N 40°46' W 074°01'4 9.3
2017-Nov-18 01:01N 40°42' W 074°00'2 3.3
2017-Nov-18 00:31N 40°43' W 074°02'0 0.0
2017-Nov-18 00:00N 40°43' W 074°02'0 0.0
2017-Nov-17 23:30N 40°43' W 074°02'0 0.1
2017-Nov-17 23:00N 40°43' W 074°03'0 0.1
2017-Nov-17 22:30N 40°43' W 074°02'0 0.0
2017-Nov-17 22:01N 40°43' W 074°03'0 0.0
2017-Nov-17 21:30N 40°43' W 074°03'1 1.0
2017-Nov-17 21:00N 40°43' W 074°02'4 1.9
2017-Nov-17 19:05N 40°46' W 074°01'1 8.5
2017-Nov-17 19:01N 40°46' W 074°01'3 5.8
2017-Nov-17 18:30N 40°43' W 074°02'1 2.8
2017-Nov-17 18:01N 40°42' W 074°01'1 2.8
2017-Nov-17 17:30N 40°43' W 074°02'1 2.8
2017-Nov-17 17:00N 40°42' W 074°00'1 2.7
2017-Nov-17 16:31N 40°43' W 074°02'1 2.7
2017-Nov-17 16:00N 40°42' W 074°00'1 2.4
2017-Nov-17 15:31N 40°43' W 074°02'0 0.4
2017-Nov-17 15:00N 40°43' W 074°02'0 1.0
2017-Nov-17 14:30N 40°43' W 074°03'0 0.0
2017-Nov-17 14:00N 40°43' W 074°03'0 0.0
2017-Nov-17 13:30N 40°43' W 074°03'0 0.0
2017-Nov-17 13:00N 40°43' W 074°03'0 0.0
2017-Nov-17 12:30N 40°43' W 074°03'0 0.0
2017-Nov-17 12:00N 40°43' W 074°03'0 0.0
2017-Nov-17 11:30N 40°43' W 074°03'0 0.0
2017-Nov-17 11:00N 40°43' W 074°03'0 0.0
2017-Nov-17 10:30N 40°43' W 074°03'0 0.0
2017-Nov-17 02:45N 40°43' W 074°02'2 7.1
2017-Nov-17 02:31N 40°41' W 074°01'1 1.7
2017-Nov-17 02:01N 40°42' W 074°01'2 3.0
2017-Nov-17 01:31N 40°41' W 074°02'2 3.0
2017-Nov-17 01:01N 40°42' W 074°01'2 3.1
2017-Nov-17 00:30N 40°43' W 074°03'0 0.0
2017-Nov-17 00:00N 40°43' W 074°03'0 0.0
2017-Nov-16 23:30N 40°43' W 074°03'0 0.1
2017-Nov-16 23:00N 40°43' W 074°03'0 0.0
2017-Nov-16 22:30N 40°43' W 074°03'0 0.0
2017-Nov-16 22:00N 40°43' W 074°03'0 0.0
2017-Nov-16 21:30N 40°43' W 074°03'0 1.0
2017-Nov-16 21:00N 40°43' W 074°02'4 7.2
2017-Nov-16 20:30N 40°46' W 074°01'0 0.0
2017-Nov-16 20:00N 40°46' W 074°01'0 0.0
2017-Nov-16 19:30N 40°46' W 074°01'0 0.0
2017-Nov-16 19:00N 40°46' W 074°01'3 7.0
2017-Nov-16 18:31N 40°43' W 074°02'1 2.5
2017-Nov-16 18:01N 40°42' W 074°00'1 2.6
2017-Nov-16 17:30N 40°43' W 074°02'1 2.6
2017-Nov-16 17:00N 40°42' W 074°00'1 2.5
2017-Nov-16 16:30N 40°43' W 074°02'1 2.4
2017-Nov-16 16:00N 40°42' W 074°00'1 2.6
2017-Nov-16 15:31N 40°43' W 074°02'1 2.5
2017-Nov-16 15:00N 40°42' W 074°00'2 3.6
2017-Nov-16 14:30N 40°43' W 074°03'0 0.0
2017-Nov-16 14:00N 40°43' W 074°03'0 0.0
2017-Nov-16 13:30N 40°43' W 074°03'0 0.0
2017-Nov-16 13:00N 40°43' W 074°03'0 0.0
2017-Nov-16 12:30N 40°43' W 074°03'0 0.0
2017-Nov-16 12:00N 40°43' W 074°03'0 0.1
2017-Nov-16 11:30N 40°43' W 074°03'0 0.0
2017-Nov-16 11:00N 40°43' W 074°03'0 0.0
2017-Nov-16 10:30N 40°43' W 074°03'0 0.0
2017-Nov-16 02:46N 40°43' W 074°02'2 7.4
2017-Nov-16 02:31N 40°41' W 074°01'1 2.8
2017-Nov-16 02:01N 40°42' W 074°01'2 3.3
2017-Nov-16 01:31N 40°41' W 074°02'2 3.3
2017-Nov-16 01:00N 40°42' W 074°01'0 0.6
2017-Nov-16 00:30N 40°42' W 074°00'0 0.0
2017-Nov-16 00:01N 40°42' W 074°00'0 0.0
2017-Nov-15 23:30N 40°42' W 074°00'0 0.0
2017-Nov-15 23:00N 40°42' W 074°00'0 0.0
2017-Nov-15 22:30N 40°42' W 074°00'0 0.1
2017-Nov-15 22:01N 40°42' W 074°00'0 0.0
2017-Nov-15 21:30N 40°42' W 074°00'0 0.2
2017-Nov-15 21:00N 40°42' W 074°00'1 2.8
2017-Nov-15 20:31N 40°43' W 074°02'1 2.6
2017-Nov-15 20:00N 40°42' W 074°00'1 2.8
2017-Nov-15 19:30N 40°43' W 074°02'1 2.8
2017-Nov-15 19:00N 40°42' W 074°00'2 4.3
2017-Nov-15 18:30N 40°44' W 074°02'2 0.7
2017-Nov-15 15:24N 40°46' W 074°01'410.7
2017-Nov-15 15:01N 40°42' W 074°00'0 0.3
2017-Nov-15 14:31N 40°42' W 074°00'0 0.0
2017-Nov-15 14:00N 40°42' W 074°00'0 0.1
2017-Nov-15 13:30N 40°42' W 074°00'0 0.1
2017-Nov-15 13:01N 40°42' W 074°00'0 0.0
2017-Nov-15 12:31N 40°42' W 074°00'0 0.0
2017-Nov-15 12:01N 40°42' W 074°00'0 0.0
2017-Nov-15 11:30N 40°42' W 074°00'3 6.5
2017-Nov-15 11:01N 40°45' W 074°01'1 0.1
2017-Nov-15 01:23N 40°46' W 074°01'410.9
2017-Nov-15 01:01N 40°42' W 074°00'2 3.6
2017-Nov-15 00:31N 40°43' W 074°03'0 0.1
2017-Nov-15 00:00N 40°43' W 074°03'0 0.1
2017-Nov-14 23:30N 40°43' W 074°03'0 0.1
2017-Nov-14 23:00N 40°43' W 074°03'0 0.1
2017-Nov-14 22:30N 40°43' W 074°03'0 0.0
2017-Nov-14 22:00N 40°43' W 074°03'0 0.0
2017-Nov-14 21:31N 40°43' W 074°03'1 2.4
2017-Nov-14 21:01N 40°43' W 074°01'3 1.4
2017-Nov-14 18:58N 40°46' W 074°01'4 7.9
2017-Nov-14 18:30N 40°43' W 074°02'1 2.6
2017-Nov-14 18:00N 40°42' W 074°00'1 2.7
2017-Nov-14 17:30N 40°43' W 074°02'1 2.7
2017-Nov-14 17:00N 40°42' W 074°00'1 2.7
2017-Nov-14 16:30N 40°43' W 074°02'1 2.7
2017-Nov-14 16:00N 40°42' W 074°00'1 2.6
2017-Nov-14 15:31N 40°43' W 074°02'0 0.2
2017-Nov-14 15:00N 40°43' W 074°02'0 1.0
2017-Nov-14 14:30N 40°43' W 074°03'0 0.0
2017-Nov-14 14:00N 40°43' W 074°03'0 0.0
2017-Nov-14 13:30N 40°43' W 074°03'0 0.0
2017-Nov-14 13:00N 40°43' W 074°03'0 0.0
2017-Nov-14 12:30N 40°43' W 074°03'0 0.0
2017-Nov-14 12:00N 40°43' W 074°03'0 0.0
2017-Nov-14 11:30N 40°43' W 074°03'0 0.0
2017-Nov-14 11:01N 40°43' W 074°03'0 0.0
2017-Nov-14 02:45N 40°43' W 074°02'1 6.0
2017-Nov-14 02:31N 40°42' W 074°01'0 0.9
2017-Nov-14 02:01N 40°42' W 074°01'1 2.3
2017-Nov-14 01:30N 40°41' W 074°02'1 2.3
2017-Nov-14 01:01N 40°42' W 074°01'2 3.0
2017-Nov-14 00:30N 40°43' W 074°03'0 0.0
2017-Nov-14 00:00N 40°43' W 074°03'0 0.1
2017-Nov-13 23:31N 40°43' W 074°03'0 0.0
2017-Nov-13 23:00N 40°43' W 074°03'0 0.0
2017-Nov-13 22:31N 40°43' W 074°03'0 0.1
2017-Nov-13 22:00N 40°43' W 074°03'  
2017-Nov-11 02:50N 40°43' W 074°02'1 4.3
2017-Nov-11 02:31N 40°41' W 074°01'1 1.7
2017-Nov-11 02:01N 40°42' W 074°01'1 1.6
2017-Nov-11 01:31N 40°41' W 074°01'1 1.6
2017-Nov-11 01:00N 40°42' W 074°01'0 0.6
2017-Nov-11 00:31N 40°42' W 074°00'0 0.0
2017-Nov-11 00:00N 40°42' W 074°00'0 0.0
2017-Nov-10 23:30N 40°42' W 074°00'0 0.1
2017-Nov-10 23:00N 40°42' W 074°00'0 0.1
2017-Nov-10 22:30N 40°42' W 074°00'0 0.1
2017-Nov-10 22:01N 40°42' W 074°00'0 0.2
2017-Nov-10 21:31N 40°42' W 074°00'0 0.3
2017-Nov-10 21:01N 40°42' W 074°00'1 2.8
2017-Nov-10 20:30N 40°43' W 074°02'1 2.8
2017-Nov-10 20:00N 40°42' W 074°00'1 2.8
2017-Nov-10 19:30N 40°43' W 074°02'1 2.8
2017-Nov-10 19:00N 40°42' W 074°00'2 4.3
2017-Nov-10 18:30N 40°44' W 074°02'2 0.8
2017-Nov-10 15:27N 40°46' W 074°01'4 8.6
2017-Nov-10 15:01N 40°43' W 074°02'1 2.2
2017-Nov-10 14:31N 40°42' W 074°01'0 0.7
2017-Nov-10 14:01N 40°42' W 074°00'0 0.0
2017-Nov-10 13:31N 40°42' W 074°00'0 0.0
2017-Nov-10 13:01N 40°42' W 074°00'0 0.4
2017-Nov-10 12:31N 40°42' W 074°01'0 0.5
2017-Nov-10 12:01N 40°42' W 074°01'0 0.8
2017-Nov-10 11:31N 40°42' W 074°00'1 2.7
2017-Nov-10 11:01N 40°43' W 074°01'3 0.3
2017-Nov-10 01:34N 40°46' W 074°01'0 0.0
2017-Nov-10 01:30N 40°46' W 074°01'4 8.4
2017-Nov-10 01:01N 40°42' W 074°00'2 3.2
2017-Nov-10 00:30N 40°43' W 074°02'0 0.1
2017-Nov-10 00:01N 40°43' W 074°02'0 0.1
2017-Nov-09 23:30N 40°43' W 074°03'0 0.1
2017-Nov-09 23:01N 40°43' W 074°03'0 0.0
2017-Nov-09 22:30N 40°43' W 074°03'0 0.2
2017-Nov-09 22:00N 40°43' W 074°02'0 0.1
2017-Nov-09 21:30N 40°43' W 074°03'1 2.8
2017-Nov-09 21:01N 40°44' W 074°01'3 5.2
2017-Nov-09 20:30N 40°46' W 074°01'0 0.0
2017-Nov-09 20:00N 40°46' W 074°01'0 0.0
2017-Nov-09 19:30N 40°46' W 074°01'0 0.0
2017-Nov-09 19:00N 40°46' W 074°01'4 7.2
2017-Nov-09 18:30N 40°43' W 074°02'1 2.8
2017-Nov-09 18:01N 40°42' W 074°00'1 2.6
2017-Nov-09 17:30N 40°43' W 074°02'1 2.6
2017-Nov-09 17:00N 40°42' W 074°00'1 2.5
2017-Nov-09 16:30N 40°43' W 074°02'1 2.6
2017-Nov-09 16:01N 40°42' W 074°00'1 2.8
2017-Nov-09 15:30N 40°43' W 074°02'1 2.8
2017-Nov-09 15:01N 40°42' W 074°00'0 0.0
2017-Nov-09 14:31N 40°42' W 074°00'0 0.0
2017-Nov-09 14:00N 40°42' W 074°00'0 0.0
2017-Nov-09 13:31N 40°42' W 074°00'0 0.0
2017-Nov-09 13:00N 40°42' W 074°00'0 0.4
2017-Nov-09 12:31N 40°42' W 074°00'0 0.1
2017-Nov-09 12:01N 40°42' W 074°00'0 0.4
2017-Nov-09 11:31N 40°42' W 074°00'1 2.4
2017-Nov-09 11:00N 40°43' W 074°02'4 0.4
2017-Nov-09 01:31N 40°46' W 074°01'0 0.0
2017-Nov-09 01:30N 40°46' W 074°01'4 8.5
2017-Nov-09 01:01N 40°42' W 074°00'2 3.6
2017-Nov-09 00:30N 40°43' W 074°03'0 0.0
2017-Nov-09 00:00N 40°43' W 074°03'0 0.0
2017-Nov-08 23:30N 40°43' W 074°03'0 0.1
2017-Nov-08 23:00N 40°43' W 074°03'0 0.1
2017-Nov-08 22:30N 40°43' W 074°03'0 0.2
2017-Nov-08 22:00N 40°43' W 074°02'0 0.0
2017-Nov-08 21:31N 40°43' W 074°02'3 5.4
2017-Nov-08 21:00N 40°45' W 074°01'1 2.4
2017-Nov-08 20:30N 40°46' W 074°01'0 0.0
2017-Nov-08 20:00N 40°46' W 074°01'0 0.0
2017-Nov-08 19:30N 40°46' W 074°01'0 0.0
2017-Nov-08 19:00N 40°46' W 074°01'4 7.3
2017-Nov-08 18:31N 40°43' W 074°02'1 2.3
2017-Nov-08 18:00N 40°42' W 074°00'1 2.8
2017-Nov-08 17:31N 40°43' W 074°02'1 2.8
2017-Nov-08 17:00N 40°42' W 074°00'1 2.5
2017-Nov-08 16:31N 40°43' W 074°02'1 2.5
2017-Nov-08 16:01N 40°42' W 074°00'1 2.7
2017-Nov-08 15:30N 40°43' W 074°02'1 2.7
2017-Nov-08 15:01N 40°42' W 074°00'0 0.0
2017-Nov-08 14:30N 40°42' W 074°00'0 0.0
2017-Nov-08 14:00N 40°42' W 074°00'0 0.0
2017-Nov-08 13:31N 40°42' W 074°00'0 0.0
2017-Nov-08 13:00N 40°42' W 074°00'0 0.0
2017-Nov-08 12:31N 40°42' W 074°00'0 0.0
2017-Nov-08 12:01N 40°42' W 074°00'0 0.0
2017-Nov-08 11:31N 40°42' W 074°00'1 2.2
2017-Nov-08 11:01N 40°43' W 074°02'4 0.4
2017-Nov-08 01:33N 40°46' W 074°01'0 0.0
2017-Nov-08 01:30N 40°46' W 074°01'  
Track history (hours):
 
Tides and Currents Weather Stations Pressure Air Temp Water Temp Dewpoint Dewpoint Depression Visibility Wind Speed Wind Dir Waves Ship Positions

Enduring Freedom

Owner: PORT IMPERIAL FERRY CORP, WEEHAWKEN, NJ. More information available from US FCC via Universal Licensing System and Coast Guard Vessel Documentation Center.

Last reported at 2017-Nov-18 01:27 UTC. Time now 2017-Nov-18 10:25 UTC.
Position N 40°46' W 074°01'.

Length 22 m.

Type: Passenger vessel. MMSI: 366853420.

Date/timePositionNaut miles runAvg speedWind from/ knotsBaromVisibWave heightAir tempDewpointWater temp
2017-Nov-18 01:27N 40°46' W 074°01'4 9.3
2017-Nov-18 01:01N 40°42' W 074°00'2 3.3
2017-Nov-18 00:31N 40°43' W 074°02'0 0.0
2017-Nov-18 00:00N 40°43' W 074°02'0 0.0
2017-Nov-17 23:30N 40°43' W 074°02'0 0.1
2017-Nov-17 23:00N 40°43' W 074°03'0 0.1
2017-Nov-17 22:30N 40°43' W 074°02'0 0.0
2017-Nov-17 22:01N 40°43' W 074°03'0 0.0
2017-Nov-17 21:30N 40°43' W 074°03'1 1.0
2017-Nov-17 21:00N 40°43' W 074°02'4 1.9
2017-Nov-17 19:05N 40°46' W 074°01'1 8.5
2017-Nov-17 19:01N 40°46' W 074°01'3 5.8
2017-Nov-17 18:30N 40°43' W 074°02'1 2.8
2017-Nov-17 18:01N 40°42' W 074°01'1 2.8
2017-Nov-17 17:30N 40°43' W 074°02'1 2.8
2017-Nov-17 17:00N 40°42' W 074°00'1 2.7
2017-Nov-17 16:31N 40°43' W 074°02'1 2.7
2017-Nov-17 16:00N 40°42' W 074°00'1 2.4
2017-Nov-17 15:31N 40°43' W 074°02'0 0.4
2017-Nov-17 15:00N 40°43' W 074°02'0 1.0
2017-Nov-17 14:30N 40°43' W 074°03'0 0.0
2017-Nov-17 14:00N 40°43' W 074°03'0 0.0
2017-Nov-17 13:30N 40°43' W 074°03'0 0.0
2017-Nov-17 13:00N 40°43' W 074°03'0 0.0
2017-Nov-17 12:30N 40°43' W 074°03'0 0.0
2017-Nov-17 12:00N 40°43' W 074°03'0 0.0
2017-Nov-17 11:30N 40°43' W 074°03'0 0.0
2017-Nov-17 11:00N 40°43' W 074°03'0 0.0
2017-Nov-17 10:30N 40°43' W 074°03'0 0.0
2017-Nov-17 02:45N 40°43' W 074°02'2 7.1
2017-Nov-17 02:31N 40°41' W 074°01'1 1.7
2017-Nov-17 02:01N 40°42' W 074°01'2 3.0
2017-Nov-17 01:31N 40°41' W 074°02'2 3.0
2017-Nov-17 01:01N 40°42' W 074°01'2 3.1
2017-Nov-17 00:30N 40°43' W 074°03'0 0.0
2017-Nov-17 00:00N 40°43' W 074°03'0 0.0
2017-Nov-16 23:30N 40°43' W 074°03'0 0.1
2017-Nov-16 23:00N 40°43' W 074°03'0 0.0
2017-Nov-16 22:30N 40°43' W 074°03'0 0.0
2017-Nov-16 22:00N 40°43' W 074°03'0 0.0
2017-Nov-16 21:30N 40°43' W 074°03'0 1.0
2017-Nov-16 21:00N 40°43' W 074°02'4 7.2
2017-Nov-16 20:30N 40°46' W 074°01'0 0.0
2017-Nov-16 20:00N 40°46' W 074°01'0 0.0
2017-Nov-16 19:30N 40°46' W 074°01'0 0.0
2017-Nov-16 19:00N 40°46' W 074°01'3 7.0
2017-Nov-16 18:31N 40°43' W 074°02'1 2.5
2017-Nov-16 18:01N 40°42' W 074°00'1 2.6
2017-Nov-16 17:30N 40°43' W 074°02'1 2.6
2017-Nov-16 17:00N 40°42' W 074°00'1 2.5
2017-Nov-16 16:30N 40°43' W 074°02'1 2.4
2017-Nov-16 16:00N 40°42' W 074°00'1 2.6
2017-Nov-16 15:31N 40°43' W 074°02'1 2.5
2017-Nov-16 15:00N 40°42' W 074°00'2 3.6
2017-Nov-16 14:30N 40°43' W 074°03'0 0.0
2017-Nov-16 14:00N 40°43' W 074°03'0 0.0
2017-Nov-16 13:30N 40°43' W 074°03'0 0.0
2017-Nov-16 13:00N 40°43' W 074°03'0 0.0
2017-Nov-16 12:30N 40°43' W 074°03'0 0.0
2017-Nov-16 12:00N 40°43' W 074°03'0 0.1
2017-Nov-16 11:30N 40°43' W 074°03'0 0.0
2017-Nov-16 11:00N 40°43' W 074°03'0 0.0
2017-Nov-16 10:30N 40°43' W 074°03'0 0.0
2017-Nov-16 02:46N 40°43' W 074°02'2 7.4
2017-Nov-16 02:31N 40°41' W 074°01'1 2.8
2017-Nov-16 02:01N 40°42' W 074°01'2 3.3
2017-Nov-16 01:31N 40°41' W 074°02'2 3.3
2017-Nov-16 01:00N 40°42' W 074°01'0 0.6
2017-Nov-16 00:30N 40°42' W 074°00'0 0.0
2017-Nov-16 00:01N 40°42' W 074°00'0 0.0
2017-Nov-15 23:30N 40°42' W 074°00'0 0.0
2017-Nov-15 23:00N 40°42' W 074°00'0 0.0
2017-Nov-15 22:30N 40°42' W 074°00'0 0.1
2017-Nov-15 22:01N 40°42' W 074°00'0 0.0
2017-Nov-15 21:30N 40°42' W 074°00'0 0.2
2017-Nov-15 21:00N 40°42' W 074°00'1 2.8
2017-Nov-15 20:31N 40°43' W 074°02'1 2.6
2017-Nov-15 20:00N 40°42' W 074°00'1 2.8
2017-Nov-15 19:30N 40°43' W 074°02'1 2.8
2017-Nov-15 19:00N 40°42' W 074°00'2 4.3
2017-Nov-15 18:30N 40°44' W 074°02'2 0.7
2017-Nov-15 15:24N 40°46' W 074°01'410.7
2017-Nov-15 15:01N 40°42' W 074°00'0 0.3
2017-Nov-15 14:31N 40°42' W 074°00'0 0.0
2017-Nov-15 14:00N 40°42' W 074°00'0 0.1
2017-Nov-15 13:30N 40°42' W 074°00'0 0.1
2017-Nov-15 13:01N 40°42' W 074°00'0 0.0
2017-Nov-15 12:31N 40°42' W 074°00'0 0.0
2017-Nov-15 12:01N 40°42' W 074°00'0 0.0
2017-Nov-15 11:30N 40°42' W 074°00'3 6.5
2017-Nov-15 11:01N 40°45' W 074°01'1 0.1
2017-Nov-15 01:23N 40°46' W 074°01'410.9
2017-Nov-15 01:01N 40°42' W 074°00'2 3.6
2017-Nov-15 00:31N 40°43' W 074°03'0 0.1
2017-Nov-15 00:00N 40°43' W 074°03'0 0.1
2017-Nov-14 23:30N 40°43' W 074°03'0 0.1
2017-Nov-14 23:00N 40°43' W 074°03'0 0.1
2017-Nov-14 22:30N 40°43' W 074°03'0 0.0
2017-Nov-14 22:00N 40°43' W 074°03'0 0.0
2017-Nov-14 21:31N 40°43' W 074°03'1 2.4
2017-Nov-14 21:01N 40°43' W 074°01'3 1.4
2017-Nov-14 18:58N 40°46' W 074°01'4 7.9
2017-Nov-14 18:30N 40°43' W 074°02'1 2.6
2017-Nov-14 18:00N 40°42' W 074°00'1 2.7
2017-Nov-14 17:30N 40°43' W 074°02'1 2.7
2017-Nov-14 17:00N 40°42' W 074°00'1 2.7
2017-Nov-14 16:30N 40°43' W 074°02'1 2.7
2017-Nov-14 16:00N 40°42' W 074°00'1 2.6
2017-Nov-14 15:31N 40°43' W 074°02'0 0.2
2017-Nov-14 15:00N 40°43' W 074°02'0 1.0
2017-Nov-14 14:30N 40°43' W 074°03'0 0.0
2017-Nov-14 14:00N 40°43' W 074°03'0 0.0
2017-Nov-14 13:30N 40°43' W 074°03'0 0.0
2017-Nov-14 13:00N 40°43' W 074°03'0 0.0
2017-Nov-14 12:30N 40°43' W 074°03'0 0.0
2017-Nov-14 12:00N 40°43' W 074°03'0 0.0
2017-Nov-14 11:30N 40°43' W 074°03'0 0.0
2017-Nov-14 11:01N 40°43' W 074°03'0 0.0
2017-Nov-14 02:45N 40°43' W 074°02'1 6.0
2017-Nov-14 02:31N 40°42' W 074°01'0 0.9
2017-Nov-14 02:01N 40°42' W 074°01'1 2.3
2017-Nov-14 01:30N 40°41' W 074°02'1 2.3
2017-Nov-14 01:01N 40°42' W 074°01'2 3.0
2017-Nov-14 00:30N 40°43' W 074°03'0 0.0
2017-Nov-14 00:00N 40°43' W 074°03'0 0.1
2017-Nov-13 23:31N 40°43' W 074°03'0 0.0
2017-Nov-13 23:00N 40°43' W 074°03'0 0.0
2017-Nov-13 22:31N 40°43' W 074°03'0 0.1
2017-Nov-13 22:00N 40°43' W 074°03'  
2017-Nov-11 02:50N 40°43' W 074°02'1 4.3
2017-Nov-11 02:31N 40°41' W 074°01'1 1.7
2017-Nov-11 02:01N 40°42' W 074°01'1 1.6
2017-Nov-11 01:31N 40°41' W 074°01'1 1.6
2017-Nov-11 01:00N 40°42' W 074°01'0 0.6
2017-Nov-11 00:31N 40°42' W 074°00'0 0.0
2017-Nov-11 00:00N 40°42' W 074°00'0 0.0
2017-Nov-10 23:30N 40°42' W 074°00'0 0.1
2017-Nov-10 23:00N 40°42' W 074°00'0 0.1
2017-Nov-10 22:30N 40°42' W 074°00'0 0.1
2017-Nov-10 22:01N 40°42' W 074°00'0 0.2
2017-Nov-10 21:31N 40°42' W 074°00'0 0.3
2017-Nov-10 21:01N 40°42' W 074°00'1 2.8
2017-Nov-10 20:30N 40°43' W 074°02'1 2.8
2017-Nov-10 20:00N 40°42' W 074°00'1 2.8
2017-Nov-10 19:30N 40°43' W 074°02'1 2.8
2017-Nov-10 19:00N 40°42' W 074°00'2 4.3
2017-Nov-10 18:30N 40°44' W 074°02'2 0.8
2017-Nov-10 15:27N 40°46' W 074°01'4 8.6
2017-Nov-10 15:01N 40°43' W 074°02'1 2.2
2017-Nov-10 14:31N 40°42' W 074°01'0 0.7
2017-Nov-10 14:01N 40°42' W 074°00'0 0.0
2017-Nov-10 13:31N 40°42' W 074°00'0 0.0
2017-Nov-10 13:01N 40°42' W 074°00'0 0.4
2017-Nov-10 12:31N 40°42' W 074°01'0 0.5
2017-Nov-10 12:01N 40°42' W 074°01'0 0.8
2017-Nov-10 11:31N 40°42' W 074°00'1 2.7
2017-Nov-10 11:01N 40°43' W 074°01'3 0.3
2017-Nov-10 01:34N 40°46' W 074°01'0 0.0
2017-Nov-10 01:30N 40°46' W 074°01'4 8.4
2017-Nov-10 01:01N 40°42' W 074°00'2 3.2
2017-Nov-10 00:30N 40°43' W 074°02'0 0.1
2017-Nov-10 00:01N 40°43' W 074°02'0 0.1
2017-Nov-09 23:30N 40°43' W 074°03'0 0.1
2017-Nov-09 23:01N 40°43' W 074°03'0 0.0
2017-Nov-09 22:30N 40°43' W 074°03'0 0.2
2017-Nov-09 22:00N 40°43' W 074°02'0 0.1
2017-Nov-09 21:30N 40°43' W 074°03'1 2.8
2017-Nov-09 21:01N 40°44' W 074°01'3 5.2
2017-Nov-09 20:30N 40°46' W 074°01'0 0.0
2017-Nov-09 20:00N 40°46' W 074°01'0 0.0
2017-Nov-09 19:30N 40°46' W 074°01'0 0.0
2017-Nov-09 19:00N 40°46' W 074°01'4 7.2
2017-Nov-09 18:30N 40°43' W 074°02'1 2.8
2017-Nov-09 18:01N 40°42' W 074°00'1 2.6
2017-Nov-09 17:30N 40°43' W 074°02'1 2.6
2017-Nov-09 17:00N 40°42' W 074°00'1 2.5
2017-Nov-09 16:30N 40°43' W 074°02'1 2.6
2017-Nov-09 16:01N 40°42' W 074°00'1 2.8
2017-Nov-09 15:30N 40°43' W 074°02'1 2.8
2017-Nov-09 15:01N 40°42' W 074°00'0 0.0
2017-Nov-09 14:31N 40°42' W 074°00'0 0.0
2017-Nov-09 14:00N 40°42' W 074°00'0 0.0
2017-Nov-09 13:31N 40°42' W 074°00'0 0.0
2017-Nov-09 13:00N 40°42' W 074°00'0 0.4
2017-Nov-09 12:31N 40°42' W 074°00'0 0.1
2017-Nov-09 12:01N 40°42' W 074°00'0 0.4
2017-Nov-09 11:31N 40°42' W 074°00'1 2.4
2017-Nov-09 11:00N 40°43' W 074°02'4 0.4
2017-Nov-09 01:31N 40°46' W 074°01'0 0.0
2017-Nov-09 01:30N 40°46' W 074°01'4 8.5
2017-Nov-09 01:01N 40°42' W 074°00'2 3.6
2017-Nov-09 00:30N 40°43' W 074°03'0 0.0
2017-Nov-09 00:00N 40°43' W 074°03'0 0.0
2017-Nov-08 23:30N 40°43' W 074°03'0 0.1
2017-Nov-08 23:00N 40°43' W 074°03'0 0.1
2017-Nov-08 22:30N 40°43' W 074°03'0 0.2
2017-Nov-08 22:00N 40°43' W 074°02'0 0.0
2017-Nov-08 21:31N 40°43' W 074°02'3 5.4
2017-Nov-08 21:00N 40°45' W 074°01'1 2.4
2017-Nov-08 20:30N 40°46' W 074°01'0 0.0
2017-Nov-08 20:00N 40°46' W 074°01'0 0.0
2017-Nov-08 19:30N 40°46' W 074°01'0 0.0
2017-Nov-08 19:00N 40°46' W 074°01'4 7.3
2017-Nov-08 18:31N 40°43' W 074°02'1 2.3
2017-Nov-08 18:00N 40°42' W 074°00'1 2.8
2017-Nov-08 17:31N 40°43' W 074°02'1 2.8
2017-Nov-08 17:00N 40°42' W 074°00'1 2.5
2017-Nov-08 16:31N 40°43' W 074°02'1 2.5
2017-Nov-08 16:01N 40°42' W 074°00'1 2.7
2017-Nov-08 15:30N 40°43' W 074°02'1 2.7
2017-Nov-08 15:01N 40°42' W 074°00'0 0.0
2017-Nov-08 14:30N 40°42' W 074°00'0 0.0
2017-Nov-08 14:00N 40°42' W 074°00'0 0.0
2017-Nov-08 13:31N 40°42' W 074°00'0 0.0
2017-Nov-08 13:00N 40°42' W 074°00'0 0.0
2017-Nov-08 12:31N 40°42' W 074°00'0 0.0
2017-Nov-08 12:01N 40°42' W 074°00'0 0.0
2017-Nov-08 11:31N 40°42' W 074°00'1 2.2
2017-Nov-08 11:01N 40°43' W 074°02'4 0.4
2017-Nov-08 01:33N 40°46' W 074°01'0 0.0
2017-Nov-08 01:30N 40°46' W 074°01'  

Dump ship's entire track history